createdAt,value
2018-11-25T00:00:25.346Z,99.99
2018-11-25T00:01:25.205Z,99.99
2018-11-25T00:03:17.865Z,99.99
2018-11-25T00:04:17.755Z,99.99
2018-11-25T00:06:10.432Z,99.99
2018-11-25T00:07:10.297Z,99.99
2018-11-25T00:09:02.950Z,99.99
2018-11-25T00:10:02.843Z,99.99
2018-11-25T00:11:55.671Z,99.99
2018-11-25T00:12:55.403Z,99.99
2018-11-25T00:14:48.236Z,99.99
2018-11-25T00:15:47.973Z,99.99
2018-11-25T00:17:40.598Z,99.99
2018-11-25T00:18:40.480Z,99.99
2018-11-25T00:20:33.153Z,99.99
2018-11-25T00:21:33.027Z,99.99
2018-11-25T00:23:25.680Z,99.99
2018-11-25T00:24:25.565Z,99.99
2018-11-25T00:26:18.236Z,99.99
2018-11-25T00:27:18.109Z,99.99
2018-11-25T00:29:10.773Z,99.99
2018-11-25T00:30:10.656Z,99.99
2018-11-25T00:32:03.334Z,99.99
2018-11-25T00:33:03.201Z,99.99
2018-11-25T00:34:55.885Z,99.99
2018-11-25T00:35:55.747Z,99.99
2018-11-25T00:37:48.983Z,99.99
2018-11-25T00:38:48.291Z,99.99
2018-11-25T00:40:40.968Z,99.99
2018-11-25T00:41:40.838Z,99.99
2018-11-25T00:43:33.500Z,99.99
2018-11-25T00:44:33.378Z,99.99
2018-11-25T00:46:26.059Z,99.99
2018-11-25T00:47:25.930Z,99.99
2018-11-25T00:49:18.639Z,99.99
2018-11-25T00:50:18.470Z,99.99
2018-11-25T00:52:11.142Z,99.99
2018-11-25T00:53:11.015Z,99.99
2018-11-25T00:55:03.694Z,99.99
2018-11-25T00:56:03.561Z,99.99
2018-11-25T00:57:56.227Z,99.99
2018-11-25T00:58:56.111Z,99.99
2018-11-25T01:00:48.786Z,99.99
2018-11-25T01:01:48.649Z,99.99
2018-11-25T01:03:41.478Z,99.99
2018-11-25T01:04:41.191Z,99.99
2018-11-25T01:06:33.876Z,99.99
2018-11-25T01:07:33.746Z,99.99
2018-11-25T01:09:26.685Z,99.99
2018-11-25T01:10:26.286Z,99.99
2018-11-25T01:12:19.051Z,99.99
2018-11-25T01:13:18.860Z,99.99
2018-11-25T01:15:11.541Z,99.99
2018-11-25T01:16:11.407Z,99.99
2018-11-25T01:18:04.068Z,99.99
2018-11-25T01:19:03.947Z,99.99
2018-11-25T01:20:56.654Z,99.99
2018-11-25T01:21:56.540Z,99.99
2018-11-25T01:23:49.151Z,99.99
2018-11-25T01:24:49.038Z,99.99
2018-11-25T01:26:41.793Z,99.99
2018-11-25T01:27:41.610Z,99.99
2018-11-25T01:29:34.266Z,99.99
2018-11-25T01:30:34.146Z,99.99
2018-11-25T01:32:26.821Z,99.99
2018-11-25T01:33:26.689Z,99.99
2018-11-25T01:35:19.367Z,99.99
2018-11-25T01:36:19.233Z,99.99
2018-11-25T01:38:11.892Z,99.99
2018-11-25T01:39:11.773Z,99.99
2018-11-25T01:41:04.448Z,99.99
2018-11-25T01:42:04.316Z,99.99
2018-11-25T01:43:56.974Z,99.99
2018-11-25T01:44:56.859Z,99.99
2018-11-25T01:46:49.532Z,99.99
2018-11-25T01:47:49.402Z,99.99
2018-11-25T01:49:42.068Z,99.99
2018-11-25T01:50:41.944Z,99.99
2018-11-25T01:52:34.622Z,99.99
2018-11-25T01:53:34.497Z,99.99
2018-11-25T01:55:27.170Z,99.99
2018-11-25T01:56:27.039Z,99.99
2018-11-25T01:58:19.691Z,99.99
2018-11-25T01:59:19.581Z,99.99
2018-11-25T02:01:12.255Z,99.99
2018-11-25T02:02:12.122Z,99.99
2018-11-25T02:04:04.785Z,99.99
2018-11-25T02:05:04.666Z,99.99
2018-11-25T02:06:57.337Z,99.99
2018-11-25T02:07:57.218Z,99.99
2018-11-25T02:09:49.875Z,99.99
2018-11-25T02:10:49.755Z,99.99
2018-11-25T02:12:42.430Z,99.99
2018-11-25T02:13:42.297Z,99.99
2018-11-25T02:15:35.134Z,99.99
2018-11-25T02:16:34.837Z,99.99
2018-11-25T02:18:27.500Z,99.99
2018-11-25T02:19:27.385Z,99.99
2018-11-25T02:21:20.057Z,99.99
2018-11-25T02:22:19.924Z,99.99
2018-11-25T02:24:12.585Z,99.99
2018-11-25T02:25:12.467Z,99.99
2018-11-25T02:27:05.144Z,99.99
2018-11-25T02:28:05.007Z,99.99
2018-11-25T02:29:57.674Z,99.99
2018-11-25T02:30:57.558Z,99.99
2018-11-25T02:32:50.232Z,99.99
2018-11-25T02:33:50.094Z,99.99
2018-11-25T02:35:42.768Z,99.99
2018-11-25T02:36:42.641Z,99.99
2018-11-25T02:38:35.295Z,99.99
2018-11-25T02:39:35.186Z,99.99
2018-11-25T02:41:27.863Z,99.99
2018-11-25T02:42:27.725Z,99.99
2018-11-25T02:44:20.388Z,99.99
2018-11-25T02:45:20.274Z,99.99
2018-11-25T02:47:12.945Z,99.99
2018-11-25T02:48:12.821Z,99.99
2018-11-25T02:50:05.478Z,99.99
2018-11-25T02:51:05.362Z,99.99
2018-11-25T02:52:58.038Z,99.99
2018-11-25T02:53:57.908Z,99.99
2018-11-25T02:55:50.581Z,99.99
2018-11-25T02:56:50.455Z,99.99
2018-11-25T02:58:43.108Z,99.99
2018-11-25T02:59:42.998Z,99.99
2018-11-25T03:01:35.672Z,99.99
2018-11-25T03:02:35.547Z,99.99
2018-11-25T03:04:28.204Z,99.99
2018-11-25T03:05:28.098Z,99.99
2018-11-25T03:07:20.767Z,99.99
2018-11-25T03:08:20.642Z,99.99
2018-11-25T03:10:13.299Z,99.99
2018-11-25T03:11:13.180Z,99.99
2018-11-25T03:13:05.856Z,99.99
2018-11-25T03:14:05.723Z,99.99
2018-11-25T03:15:58.402Z,99.99
2018-11-25T03:16:58.264Z,99.99
2018-11-25T03:18:50.924Z,99.99
2018-11-25T03:19:50.810Z,99.99
2018-11-25T03:21:43.481Z,99.99
2018-11-25T03:22:43.353Z,99.99
2018-11-25T03:24:36.013Z,99.99
2018-11-25T03:25:35.893Z,99.99
2018-11-25T03:27:28.572Z,99.99
2018-11-25T03:28:28.445Z,99.99
2018-11-25T03:30:21.103Z,99.99
2018-11-25T03:31:20.990Z,99.99
2018-11-25T03:33:13.669Z,99.99
2018-11-25T03:34:13.533Z,99.99
2018-11-25T03:36:06.208Z,99.99
2018-11-25T03:37:06.081Z,99.99
2018-11-25T03:38:58.746Z,99.99
2018-11-25T03:39:58.623Z,99.99
2018-11-25T03:41:51.299Z,99.99
2018-11-25T03:42:51.167Z,99.99
2018-11-25T03:44:43.830Z,99.99
2018-11-25T03:45:43.709Z,99.99
2018-11-25T03:47:36.392Z,99.99
2018-11-25T03:48:36.262Z,99.99
2018-11-25T03:50:28.919Z,99.99
2018-11-25T03:51:28.804Z,99.99
2018-11-25T03:53:21.482Z,99.99
2018-11-25T03:54:21.349Z,99.99
2018-11-25T03:56:14.029Z,99.99
2018-11-25T03:57:13.892Z,99.99
2018-11-25T03:59:06.558Z,99.99
2018-11-25T04:00:06.445Z,99.99
2018-11-25T04:01:59.118Z,99.99
2018-11-25T04:02:59.004Z,99.99
2018-11-25T04:04:51.645Z,99.99
2018-11-25T04:05:51.532Z,99.99
2018-11-25T04:07:44.209Z,99.99
2018-11-25T04:08:44.081Z,99.99
2018-11-25T04:10:36.761Z,99.99
2018-11-25T04:11:36.623Z,99.99
2018-11-25T04:13:29.276Z,99.99
2018-11-25T04:14:29.172Z,99.99
2018-11-25T04:16:21.837Z,99.99
2018-11-25T04:17:21.709Z,99.99
2018-11-25T04:19:14.368Z,99.99
2018-11-25T04:20:14.249Z,99.99
2018-11-25T04:22:06.924Z,99.99
2018-11-25T04:23:06.795Z,99.99
2018-11-25T04:24:59.456Z,99.99
2018-11-25T04:25:59.339Z,99.99
2018-11-25T04:27:52.019Z,99.99
2018-11-25T04:28:51.883Z,99.99
2018-11-25T04:30:44.562Z,99.99
2018-11-25T04:31:44.429Z,99.99
2018-11-25T04:33:37.089Z,99.99
2018-11-25T04:34:36.982Z,99.99
2018-11-25T04:36:29.648Z,99.99
2018-11-25T04:37:29.515Z,99.99
2018-11-25T04:39:22.177Z,99.99
2018-11-25T04:40:22.059Z,99.99
2018-11-25T04:42:14.737Z,99.99
2018-11-25T04:43:14.611Z,99.99
2018-11-25T04:45:07.264Z,99.99
2018-11-25T04:46:07.161Z,99.99
2018-11-25T04:47:59.831Z,99.99
2018-11-25T04:48:59.700Z,99.99
2018-11-25T04:50:52.376Z,99.99
2018-11-25T04:51:52.249Z,99.99
2018-11-25T04:53:44.904Z,99.99
2018-11-25T04:54:44.795Z,99.99
2018-11-25T04:56:37.460Z,99.99
2018-11-25T04:57:37.335Z,99.99
2018-11-25T04:59:29.992Z,99.99
2018-11-25T05:00:29.878Z,99.99
2018-11-25T05:02:22.551Z,99.99
2018-11-25T05:03:22.418Z,99.99
2018-11-25T05:05:15.079Z,99.99
2018-11-25T05:06:14.968Z,99.99
2018-11-25T05:08:07.642Z,99.99
2018-11-25T05:09:07.512Z,99.99
2018-11-25T05:11:00.191Z,99.99
2018-11-25T05:12:00.058Z,99.99
2018-11-25T05:13:52.722Z,99.99
2018-11-25T05:14:52.608Z,99.99
2018-11-25T05:16:45.278Z,99.99
2018-11-25T05:17:45.151Z,99.99
2018-11-25T05:19:37.810Z,99.99
2018-11-25T05:20:37.700Z,99.99
2018-11-25T05:22:30.374Z,99.99
2018-11-25T05:23:30.242Z,99.99
2018-11-25T05:25:22.901Z,99.99
2018-11-25T05:26:22.785Z,99.99
2018-11-25T05:28:15.461Z,99.99
2018-11-25T05:29:15.332Z,99.99
2018-11-25T05:31:08.008Z,99.99
2018-11-25T05:32:07.874Z,99.99
2018-11-25T05:34:01.037Z,99.99
2018-11-25T05:35:00.919Z,99.99
2018-11-25T05:36:53.596Z,99.99
2018-11-25T05:37:53.465Z,99.99
2018-11-25T05:39:46.122Z,99.99
2018-11-25T05:40:46.010Z,99.99
2018-11-25T05:42:38.697Z,99.99
2018-11-25T05:43:38.560Z,99.99
2018-11-25T05:45:31.217Z,99.99
2018-11-25T05:46:31.100Z,99.99
2018-11-25T05:48:23.771Z,99.99
2018-11-25T05:49:23.655Z,99.99
2018-11-25T05:51:16.325Z,99.99
2018-11-25T05:52:16.189Z,99.99
2018-11-25T05:54:08.848Z,99.99
2018-11-25T05:55:08.734Z,99.99
2018-11-25T05:57:01.413Z,99.99
2018-11-25T05:58:01.283Z,99.99
2018-11-25T05:59:53.937Z,99.99
2018-11-25T06:00:53.826Z,99.99
2018-11-25T06:02:46.501Z,99.99
2018-11-25T06:03:46.369Z,99.99
2018-11-25T06:05:39.039Z,99.99
2018-11-25T06:06:38.922Z,99.99
2018-11-25T06:08:31.600Z,99.99
2018-11-25T06:09:31.467Z,99.99
2018-11-25T06:11:24.145Z,99.99
2018-11-25T06:12:24.020Z,99.99
2018-11-25T06:14:16.835Z,99.99
2018-11-25T06:15:16.557Z,99.99
2018-11-25T06:17:09.239Z,99.99
2018-11-25T06:18:09.110Z,99.99
2018-11-25T06:20:01.767Z,99.99
2018-11-25T06:21:01.652Z,99.99
2018-11-25T06:22:54.345Z,99.99
2018-11-25T06:23:54.196Z,99.99
2018-11-25T06:25:46.876Z,99.99
2018-11-25T06:26:46.737Z,99.99
2018-11-25T06:28:39.388Z,99.99
2018-11-25T06:29:39.282Z,99.99
2018-11-25T06:31:31.957Z,99.99
2018-11-25T06:32:31.826Z,99.99
2018-11-25T06:34:24.485Z,99.99
2018-11-25T06:35:24.366Z,99.99
2018-11-25T06:37:17.047Z,99.99
2018-11-25T06:38:16.916Z,99.99
2018-11-25T06:40:09.583Z,99.99
2018-11-25T06:41:09.464Z,99.99
2018-11-25T06:43:02.141Z,99.99
2018-11-25T06:44:02.011Z,99.99
2018-11-25T06:45:54.687Z,99.99
2018-11-25T06:46:54.560Z,99.99
2018-11-25T06:48:54.562Z,99.99
2018-11-25T06:49:47.104Z,99.99
2018-11-25T06:51:39.771Z,99.99
2018-11-25T06:52:39.644Z,99.99
2018-11-25T06:54:32.306Z,99.99
2018-11-25T06:55:32.190Z,99.99
2018-11-25T06:57:24.866Z,99.99
2018-11-25T06:58:24.733Z,99.99
2018-11-25T07:00:17.396Z,99.99
2018-11-25T07:01:17.280Z,99.99
2018-11-25T07:03:09.952Z,99.99
2018-11-25T07:04:09.820Z,99.99
2018-11-25T07:06:02.498Z,99.99
2018-11-25T07:07:02.368Z,99.99
2018-11-25T07:08:55.024Z,99.99
2018-11-25T07:09:54.908Z,99.99
2018-11-25T07:11:47.739Z,99.99
2018-11-25T07:12:47.462Z,99.99
2018-11-25T07:14:40.120Z,99.99
2018-11-25T07:15:40.004Z,99.99
2018-11-25T07:17:32.684Z,99.99
2018-11-25T07:18:32.552Z,99.99
2018-11-25T07:20:25.212Z,99.99
2018-11-25T07:21:25.094Z,99.99
2018-11-25T07:23:17.765Z,99.99
2018-11-25T07:24:17.635Z,99.99
2018-11-25T07:26:10.313Z,99.99
2018-11-25T07:27:10.178Z,99.99
2018-11-25T07:29:02.830Z,99.99
2018-11-25T07:30:07.559Z,99.99
2018-11-25T07:31:55.396Z,99.99
2018-11-25T07:32:55.260Z,99.99
2018-11-25T07:34:47.931Z,99.99
2018-11-25T07:35:47.809Z,99.99
2018-11-25T07:37:40.485Z,99.99
2018-11-25T07:38:40.358Z,99.99
2018-11-25T07:40:33.026Z,99.99
2018-11-25T07:41:32.965Z,99.99
2018-11-25T07:43:25.582Z,99.99
2018-11-25T07:44:25.448Z,99.99
2018-11-25T07:46:18.130Z,99.99
2018-11-25T07:47:18.003Z,99.99
2018-11-25T07:49:10.656Z,99.99
2018-11-25T07:50:10.545Z,99.99
2018-11-25T07:52:03.220Z,99.99
2018-11-25T07:53:03.089Z,99.99
2018-11-25T07:54:55.756Z,99.99
2018-11-25T07:55:55.644Z,99.99
2018-11-25T07:57:48.313Z,99.99
2018-11-25T07:58:48.188Z,99.99
2018-11-25T08:00:40.849Z,99.99
2018-11-25T08:01:40.725Z,99.99
2018-11-25T08:03:33.401Z,99.99
2018-11-25T08:04:33.272Z,99.99
2018-11-25T08:06:25.948Z,99.99
2018-11-25T08:07:25.817Z,99.99
2018-11-25T08:09:18.475Z,99.99
2018-11-25T08:10:18.361Z,99.99
2018-11-25T08:12:11.036Z,99.99
2018-11-25T08:13:10.923Z,99.99
2018-11-25T08:15:03.561Z,99.99
2018-11-25T08:16:03.449Z,99.99
2018-11-25T08:17:56.120Z,99.99
2018-11-25T08:18:55.995Z,99.99
2018-11-25T08:20:48.653Z,99.99
2018-11-25T08:21:48.532Z,99.99
2018-11-25T08:23:41.210Z,99.99
2018-11-25T08:24:41.087Z,99.99
2018-11-25T08:26:33.757Z,99.99
2018-11-25T08:27:33.630Z,99.99
2018-11-25T08:29:26.284Z,99.99
2018-11-25T08:30:26.170Z,99.99
2018-11-25T08:32:18.844Z,99.99
2018-11-25T08:33:18.711Z,99.99
2018-11-25T08:35:11.378Z,99.99
2018-11-25T08:36:11.263Z,99.99
2018-11-25T08:38:03.943Z,99.99
2018-11-25T08:39:03.806Z,99.99
2018-11-25T08:40:56.470Z,99.99
2018-11-25T08:41:56.355Z,99.99
2018-11-25T08:43:49.025Z,99.99
2018-11-25T08:44:48.895Z,99.99
2018-11-25T08:46:41.569Z,99.99
2018-11-25T08:47:41.444Z,99.99
2018-11-25T08:49:34.104Z,99.99
2018-11-25T08:50:33.997Z,99.99
2018-11-25T08:52:26.662Z,99.99
2018-11-25T08:53:26.532Z,99.99
2018-11-25T08:55:19.192Z,99.99
2018-11-25T08:56:19.073Z,99.99
2018-11-25T08:58:11.912Z,99.99
2018-11-25T08:59:11.617Z,99.99
2018-11-25T09:01:04.279Z,99.99
2018-11-25T09:02:04.162Z,99.99
2018-11-25T09:03:56.840Z,99.99
2018-11-25T09:04:56.717Z,99.99
2018-11-25T09:06:49.383Z,99.99
2018-11-25T09:07:49.257Z,99.99
2018-11-25T09:09:41.922Z,99.99
2018-11-25T09:10:41.802Z,99.99
2018-11-25T09:12:34.478Z,99.99
2018-11-25T09:13:34.344Z,99.99
2018-11-25T09:15:27.001Z,99.99
2018-11-25T09:16:26.892Z,99.99
2018-11-25T09:18:19.571Z,99.99
2018-11-25T09:19:19.435Z,99.99
2018-11-25T09:21:12.107Z,99.99
2018-11-25T09:22:11.985Z,99.99
2018-11-25T09:24:04.639Z,99.99
2018-11-25T09:25:04.523Z,99.99
2018-11-25T09:26:57.202Z,99.99
2018-11-25T09:27:57.068Z,99.58
2018-11-25T09:29:49.731Z,99.58
2018-11-25T09:30:49.612Z,99.49
2018-11-25T09:32:42.291Z,99.96
2018-11-25T09:33:42.161Z,99.68
2018-11-25T09:35:34.823Z,99.20
2018-11-25T09:36:34.706Z,99.68
2018-11-25T09:38:27.378Z,99.49
2018-11-25T09:39:27.250Z,99.58
2018-11-25T09:41:19.935Z,99.01
2018-11-25T09:42:19.798Z,98.92
2018-11-25T09:44:12.474Z,99.01
2018-11-25T09:45:12.344Z,99.39
2018-11-25T09:47:05.015Z,99.39
2018-11-25T09:48:04.892Z,98.92
2018-11-25T09:49:57.550Z,98.92
2018-11-25T09:50:57.434Z,99.11
2018-11-25T09:52:50.114Z,98.92
2018-11-25T09:53:49.979Z,99.20
2018-11-25T09:55:42.654Z,99.06
2018-11-25T09:56:42.524Z,99.39
2018-11-25T09:58:35.200Z,99.72
2018-11-25T09:59:35.072Z,99.53
2018-11-25T10:01:27.745Z,99.63
2018-11-25T10:02:27.620Z,99.34
2018-11-25T10:04:20.273Z,99.99
2018-11-25T10:05:20.162Z,99.68
2018-11-25T10:07:12.834Z,99.99
2018-11-25T10:08:12.700Z,99.77
2018-11-25T10:10:05.359Z,99.63
2018-11-25T10:11:05.252Z,99.82
2018-11-25T10:12:57.924Z,99.82
2018-11-25T10:13:57.797Z,99.82
2018-11-25T10:15:50.454Z,99.77
2018-11-25T10:16:50.337Z,99.91
2018-11-25T10:18:43.011Z,99.63
2018-11-25T10:19:42.880Z,99.91
2018-11-25T10:21:35.560Z,99.77
2018-11-25T10:22:35.427Z,99.63
2018-11-25T10:24:28.082Z,99.68
2018-11-25T10:25:27.977Z,99.39
2018-11-25T10:27:20.648Z,99.30
2018-11-25T10:28:20.522Z,99.44
2018-11-25T10:30:13.176Z,99.99
2018-11-25T10:31:13.061Z,99.99
2018-11-25T10:33:05.734Z,99.44
2018-11-25T10:34:05.601Z,99.91
2018-11-25T10:35:58.278Z,99.99
2018-11-25T10:36:58.147Z,99.63
2018-11-25T10:38:50.826Z,99.39
2018-11-25T10:39:50.705Z,99.91
2018-11-25T10:41:43.395Z,99.68
2018-11-25T10:42:43.255Z,99.20
2018-11-25T10:44:35.911Z,99.77
2018-11-25T10:45:35.804Z,99.44
2018-11-25T10:47:28.480Z,99.63
2018-11-25T10:48:28.344Z,99.77
2018-11-25T10:50:21.006Z,99.87
2018-11-25T10:51:20.893Z,99.58
2018-11-25T10:53:13.562Z,99.96
2018-11-25T10:54:13.433Z,99.96
2018-11-25T10:56:06.096Z,99.96
2018-11-25T10:57:05.986Z,99.87
2018-11-25T10:58:58.655Z,99.77
2018-11-25T10:59:58.582Z,99.87
2018-11-25T11:01:51.219Z,99.49
2018-11-25T11:02:51.091Z,99.77
2018-11-25T11:04:43.751Z,99.87
2018-11-25T11:05:43.635Z,99.63
2018-11-25T11:07:36.304Z,99.96
2018-11-25T11:08:36.182Z,99.53
2018-11-25T11:10:28.832Z,99.96
2018-11-25T11:11:28.726Z,99.34
2018-11-25T11:13:21.393Z,99.99
2018-11-25T11:14:21.270Z,99.49
2018-11-25T11:16:14.426Z,99.96
2018-11-25T11:17:14.303Z,99.99
2018-11-25T11:19:06.978Z,99.77
2018-11-25T11:20:06.852Z,99.77
2018-11-25T11:21:59.522Z,99.87
2018-11-25T11:22:59.391Z,99.87
2018-11-25T11:24:52.054Z,99.49
2018-11-25T11:25:51.936Z,99.99
2018-11-25T11:27:44.619Z,99.68
2018-11-25T11:28:44.482Z,99.49
2018-11-25T11:30:37.139Z,99.49
2018-11-25T11:31:37.027Z,99.99
2018-11-25T11:33:29.702Z,99.20
2018-11-25T11:34:29.567Z,99.01
2018-11-25T11:36:22.231Z,98.92
2018-11-25T11:37:22.114Z,99.39
2018-11-25T11:39:14.790Z,99.99
2018-11-25T11:40:14.665Z,99.77
2018-11-25T11:42:07.337Z,99.87
2018-11-25T11:43:07.208Z,99.49
2018-11-25T11:44:59.870Z,99.77
2018-11-25T11:45:59.756Z,99.96
2018-11-25T11:47:52.436Z,99.72
2018-11-25T11:48:52.303Z,99.82
2018-11-25T11:50:44.961Z,99.82
2018-11-25T11:51:44.850Z,99.72
2018-11-25T11:53:37.517Z,99.53
2018-11-25T11:54:37.395Z,99.99
2018-11-25T11:56:30.056Z,99.99
2018-11-25T11:57:29.935Z,99.63
2018-11-25T11:59:22.614Z,99.99
2018-11-25T12:00:22.486Z,99.87
2018-11-25T12:02:15.160Z,99.99
2018-11-25T12:03:15.028Z,99.58
2018-11-25T12:05:07.686Z,99.68
2018-11-25T12:06:07.578Z,99.96
2018-11-25T12:08:00.250Z,99.87
2018-11-25T12:09:00.123Z,99.68
2018-11-25T12:10:52.781Z,99.01
2018-11-25T12:11:52.666Z,99.11
2018-11-25T12:13:45.347Z,99.01
2018-11-25T12:14:45.218Z,99.20
2018-11-25T12:16:37.886Z,98.92
2018-11-25T12:17:37.760Z,98.92
2018-11-25T12:19:30.456Z,98.92
2018-11-25T12:20:30.312Z,99.01
2018-11-25T12:22:22.980Z,99.20
2018-11-25T12:23:22.855Z,98.92
2018-11-25T12:25:15.512Z,98.92
2018-11-25T12:26:15.397Z,98.92
2018-11-25T12:28:08.078Z,98.92
2018-11-25T12:29:07.940Z,99.01
2018-11-25T12:31:00.605Z,99.49
2018-11-25T12:32:00.597Z,99.49
2018-11-25T12:33:53.163Z,99.87
2018-11-25T12:34:53.037Z,99.96
2018-11-25T12:36:45.711Z,99.87
2018-11-25T12:37:45.586Z,99.77
2018-11-25T12:39:38.231Z,99.49
2018-11-25T12:40:38.118Z,99.68
2018-11-25T12:42:30.795Z,99.58
2018-11-25T12:43:30.658Z,99.68
2018-11-25T12:45:23.322Z,99.68
2018-11-25T12:46:23.203Z,99.87
2018-11-25T12:48:15.885Z,99.20
2018-11-25T12:49:15.756Z,99.87
2018-11-25T12:51:08.409Z,99.49
2018-11-25T12:52:08.297Z,99.77
2018-11-25T12:54:00.975Z,99.20
2018-11-25T12:55:00.838Z,99.49
2018-11-25T12:56:53.516Z,99.96
2018-11-25T12:57:53.382Z,99.77
2018-11-25T12:59:46.040Z,99.20
2018-11-25T13:00:45.928Z,99.49
2018-11-25T13:02:38.599Z,99.58
2018-11-25T13:03:38.472Z,99.96
2018-11-25T13:05:31.139Z,99.68
2018-11-25T13:06:31.020Z,99.77
2018-11-25T13:08:23.689Z,99.68
2018-11-25T13:09:23.566Z,99.68
2018-11-25T13:11:16.253Z,99.96
2018-11-25T13:12:16.137Z,99.49
2018-11-25T13:14:08.815Z,99.58
2018-11-25T13:15:08.679Z,99.58
2018-11-25T13:17:01.349Z,99.96
2018-11-25T13:18:01.226Z,99.58
2018-11-25T13:19:53.888Z,99.96
2018-11-25T13:20:53.777Z,99.87
2018-11-25T13:22:46.438Z,99.87
2018-11-25T13:23:46.312Z,99.87
2018-11-25T13:25:38.985Z,99.96
2018-11-25T13:26:38.871Z,99.49
2018-11-25T13:28:31.591Z,99.87
2018-11-25T13:29:31.427Z,99.87
2018-11-25T13:31:24.077Z,99.99
2018-11-25T13:32:23.952Z,99.99
2018-11-25T13:34:16.640Z,99.99
2018-11-25T13:35:16.501Z,99.99
2018-11-25T13:37:09.181Z,99.99
2018-11-25T13:38:09.049Z,99.99
2018-11-25T13:40:02.558Z,99.99
2018-11-25T13:41:02.444Z,99.99
2018-11-25T13:42:55.133Z,99.99
2018-11-25T13:43:54.994Z,99.99
2018-11-25T13:45:47.663Z,99.99
2018-11-25T13:46:47.547Z,99.99
2018-11-25T13:48:40.228Z,99.99
2018-11-25T13:49:40.098Z,99.99
2018-11-25T13:51:32.757Z,99.99
2018-11-25T13:52:32.650Z,99.99
2018-11-25T13:54:25.336Z,99.99
2018-11-25T13:55:25.210Z,99.99
2018-11-25T13:57:18.402Z,99.99
2018-11-25T13:58:18.248Z,99.99
2018-11-25T14:00:11.256Z,99.99
2018-11-25T14:01:10.820Z,99.77
2018-11-25T14:03:03.469Z,99.99
2018-11-25T14:04:03.348Z,99.99
2018-11-25T14:05:56.441Z,99.99
2018-11-25T14:06:55.888Z,99.99
2018-11-25T14:08:48.567Z,99.99
2018-11-25T14:09:48.636Z,99.99
2018-11-25T14:11:41.178Z,99.99
2018-11-25T14:12:41.778Z,99.99
2018-11-25T14:14:34.070Z,99.99
2018-11-25T14:15:33.796Z,99.99
2018-11-25T14:17:26.470Z,99.99
2018-11-25T14:18:26.348Z,99.99
2018-11-25T14:20:20.117Z,99.99
2018-11-25T14:21:18.972Z,99.99
2018-11-25T14:23:13.097Z,99.99
2018-11-25T14:24:12.742Z,99.99
2018-11-25T14:26:05.348Z,99.99
2018-11-25T14:27:05.291Z,99.99
2018-11-25T14:28:57.941Z,99.99
2018-11-25T14:29:57.777Z,99.99
2018-11-25T14:31:50.449Z,99.99
2018-11-25T14:32:50.330Z,99.99
2018-11-25T14:34:44.047Z,99.99
2018-11-25T14:35:43.873Z,99.99
2018-11-25T14:37:36.578Z,99.99
2018-11-25T14:38:36.438Z,99.99
2018-11-25T14:40:29.136Z,99.99
2018-11-25T14:41:28.973Z,99.99
2018-11-25T14:43:22.181Z,99.99
2018-11-25T14:44:22.084Z,99.99
2018-11-25T14:46:14.725Z,99.99
2018-11-25T14:47:14.595Z,99.99
2018-11-25T14:49:07.280Z,99.99
2018-11-25T14:50:07.147Z,99.99
2018-11-25T14:51:59.812Z,99.99
2018-11-25T14:52:59.685Z,99.99
2018-11-25T14:54:52.847Z,99.99
2018-11-25T14:55:52.733Z,99.99
2018-11-25T14:57:45.408Z,99.99
2018-11-25T14:58:45.279Z,99.99
2018-11-25T15:00:37.939Z,99.99
2018-11-25T15:01:38.019Z,99.99
2018-11-25T15:03:43.271Z,99.99
2018-11-25T15:04:43.143Z,99.99
2018-11-25T15:06:35.823Z,99.99
2018-11-25T15:07:35.703Z,99.99
2018-11-25T15:09:28.377Z,99.99
2018-11-25T15:10:28.251Z,99.99
2018-11-25T15:12:20.922Z,99.99
2018-11-25T15:13:20.796Z,99.99
2018-11-25T15:15:13.466Z,99.99
2018-11-25T15:16:13.342Z,99.99
2018-11-25T15:18:06.177Z,99.99
2018-11-25T15:19:05.883Z,99.99
2018-11-25T15:20:58.552Z,99.99
2018-11-25T15:21:58.437Z,99.99
2018-11-25T15:23:51.117Z,99.99
2018-11-25T15:24:50.979Z,99.99
2018-11-25T15:26:43.662Z,99.99
2018-11-25T15:27:43.555Z,99.99
2018-11-25T15:29:36.381Z,99.99
2018-11-25T15:30:36.099Z,99.99
2018-11-25T15:32:28.767Z,99.99
2018-11-25T15:33:28.638Z,99.99
2018-11-25T15:35:21.306Z,99.99
2018-11-25T15:36:21.187Z,99.99
2018-11-25T15:38:13.866Z,99.99
2018-11-25T15:39:13.755Z,99.99
2018-11-25T15:41:06.394Z,99.99
2018-11-25T15:42:06.280Z,99.99
2018-11-25T15:43:58.960Z,99.99
2018-11-25T15:44:58.828Z,99.99
2018-11-25T15:46:51.480Z,99.99
2018-11-25T15:47:51.369Z,99.99
2018-11-25T15:49:44.047Z,99.99
2018-11-25T15:50:43.917Z,99.99
2018-11-25T15:52:36.584Z,99.99
2018-11-25T15:53:36.468Z,99.99
2018-11-25T15:55:29.113Z,99.99
2018-11-25T15:56:29.010Z,99.99
2018-11-25T15:58:21.680Z,99.99
2018-11-25T15:59:21.563Z,99.99
2018-11-25T16:01:14.245Z,99.99
2018-11-25T16:02:14.134Z,99.99
2018-11-25T16:04:06.803Z,99.99
2018-11-25T16:05:06.675Z,99.99
2018-11-25T16:06:59.338Z,99.99
2018-11-25T16:07:59.223Z,99.99
2018-11-25T16:09:51.904Z,99.99
2018-11-25T16:10:51.770Z,99.99
2018-11-25T16:12:44.453Z,99.99
2018-11-25T16:13:44.322Z,99.99
2018-11-25T16:15:37.000Z,99.99
2018-11-25T16:16:36.881Z,99.99
2018-11-25T16:18:30.046Z,99.99
2018-11-25T16:19:29.914Z,99.99
2018-11-25T16:21:22.573Z,99.99
2018-11-25T16:22:22.459Z,99.99
2018-11-25T16:24:15.146Z,99.99
2018-11-25T16:25:15.011Z,99.99
2018-11-25T16:27:07.699Z,99.99
2018-11-25T16:28:07.555Z,99.99
2018-11-25T16:30:00.215Z,99.99
2018-11-25T16:31:00.101Z,99.99
2018-11-25T16:32:52.774Z,99.99
2018-11-25T16:33:52.644Z,99.99
2018-11-25T16:35:45.303Z,99.99
2018-11-25T16:36:45.198Z,99.99
2018-11-25T16:38:37.875Z,99.99
2018-11-25T16:39:37.745Z,99.99
2018-11-25T16:41:30.404Z,99.99
2018-11-25T16:42:30.285Z,99.99
2018-11-25T16:44:22.965Z,99.99
2018-11-25T16:45:22.829Z,99.99
2018-11-25T16:47:15.508Z,99.99
2018-11-25T16:48:15.379Z,99.99
2018-11-25T16:50:08.039Z,99.99
2018-11-25T16:51:07.918Z,99.99
2018-11-25T16:53:00.594Z,99.99
2018-11-25T16:54:00.467Z,99.99
2018-11-25T16:55:53.124Z,99.99
2018-11-25T16:56:53.012Z,99.99
2018-11-25T16:58:45.687Z,99.99
2018-11-25T16:59:45.556Z,99.99
2018-11-25T17:01:38.212Z,99.99
2018-11-25T17:02:38.103Z,99.99
2018-11-25T17:04:30.777Z,99.99
2018-11-25T17:05:30.645Z,99.99
2018-11-25T17:07:23.317Z,99.99
2018-11-25T17:08:23.197Z,99.99
2018-11-25T17:10:15.860Z,99.99
2018-11-25T17:11:15.735Z,99.99
2018-11-25T17:13:08.416Z,99.99
2018-11-25T17:14:08.284Z,99.99
2018-11-25T17:16:00.950Z,99.99
2018-11-25T17:17:00.835Z,99.99
2018-11-25T17:18:53.507Z,99.99
2018-11-25T17:19:53.382Z,99.99
2018-11-25T17:21:46.044Z,99.99
2018-11-25T17:22:46.010Z,99.99
2018-11-25T17:24:38.603Z,99.99
2018-11-25T17:25:38.481Z,99.99
2018-11-25T17:27:31.158Z,99.99
2018-11-25T17:28:31.026Z,99.99
2018-11-25T17:30:23.689Z,99.99
2018-11-25T17:31:23.573Z,99.99
2018-11-25T17:33:16.252Z,99.99
2018-11-25T17:34:16.128Z,99.99
2018-11-25T17:36:08.778Z,99.99
2018-11-25T17:37:08.671Z,99.99
2018-11-25T17:39:01.343Z,99.99
2018-11-25T17:40:01.212Z,99.99
2018-11-25T17:41:53.877Z,99.99
2018-11-25T17:42:53.764Z,99.99
2018-11-25T17:44:46.440Z,99.99
2018-11-25T17:45:46.312Z,99.99
2018-11-25T17:47:38.984Z,99.99
2018-11-25T17:48:38.852Z,99.99
2018-11-25T17:50:31.510Z,99.99
2018-11-25T17:51:31.398Z,99.99
2018-11-25T17:53:24.074Z,99.99
2018-11-25T17:54:23.945Z,99.99
2018-11-25T17:56:16.605Z,99.99
2018-11-25T17:57:16.497Z,99.99
2018-11-25T17:59:09.167Z,99.99
2018-11-25T18:00:09.041Z,99.99
2018-11-25T18:02:01.702Z,99.99
2018-11-25T18:03:01.586Z,99.99
2018-11-25T18:04:54.267Z,99.99
2018-11-25T18:05:54.139Z,99.99
2018-11-25T18:07:46.811Z,99.99
2018-11-25T18:08:46.681Z,99.99
2018-11-25T18:10:39.343Z,99.99
2018-11-25T18:11:39.226Z,99.99
2018-11-25T18:13:31.897Z,99.99
2018-11-25T18:14:31.766Z,99.99
2018-11-25T18:16:24.427Z,99.99
2018-11-25T18:17:24.328Z,99.99
2018-11-25T18:19:16.994Z,99.99
2018-11-25T18:20:16.857Z,99.99
2018-11-25T18:22:09.527Z,99.99
2018-11-25T18:23:09.412Z,99.99
2018-11-25T18:25:02.086Z,99.99
2018-11-25T18:26:01.975Z,99.99
2018-11-25T18:28:00.396Z,99.99
2018-11-25T18:28:54.497Z,99.99
2018-11-25T18:30:47.162Z,99.99